createdAt,value
2019-01-23T00:00:46.358Z,16.20
2019-01-23T00:05:48.374Z,16.95
2019-01-23T00:10:50.811Z,16.37
2019-01-23T00:15:52.860Z,15.83
2019-01-23T00:20:54.933Z,17.30
2019-01-23T00:25:56.916Z,16.25
2019-01-23T00:30:58.892Z,16.52
2019-01-23T00:36:00.943Z,16.77
2019-01-23T00:41:03.059Z,15.45
2019-01-23T00:46:05.447Z,16.80
2019-01-23T00:51:07.774Z,15.85
2019-01-23T00:56:09.816Z,15.60
2019-01-23T01:01:12.004Z,15.58
2019-01-23T01:06:14.047Z,17.10
2019-01-23T01:11:16.079Z,16.23
2019-01-23T01:16:18.074Z,16.60
2019-01-23T01:21:20.124Z,16.42
2019-01-23T01:26:22.275Z,16.60
2019-01-23T01:31:24.290Z,16.07
2019-01-23T01:36:26.713Z,15.05
2019-01-23T01:41:28.742Z,16.02
2019-01-23T01:46:30.794Z,16.37
2019-01-23T01:51:32.873Z,17.15
2019-01-23T01:56:34.939Z,16.67
2019-01-23T02:01:36.975Z,16.70
2019-01-23T02:06:39.023Z,16.25
2019-01-23T02:11:41.345Z,18.85
2019-01-23T02:16:43.403Z,15.55
2019-01-23T02:21:45.479Z,18.95
2019-01-23T02:26:47.487Z,16.45
2019-01-23T02:31:49.490Z,17.73
2019-01-23T02:36:51.508Z,16.77
2019-01-23T02:41:53.507Z,18.05
2019-01-23T02:46:55.490Z,17.17
2019-01-23T02:51:57.622Z,17.62
2019-01-23T02:56:59.764Z,16.55
2019-01-23T03:02:01.784Z,17.25
2019-01-23T03:07:03.855Z,17.05
2019-01-23T03:12:05.844Z,17.75
2019-01-23T03:17:08.172Z,18.60
2019-01-23T03:22:10.255Z,19.10
2019-01-23T03:27:12.278Z,16.17
2019-01-23T03:32:14.438Z,18.15
2019-01-23T03:37:16.732Z,16.75
2019-01-23T03:42:18.833Z,17.87
2019-01-23T03:47:21.169Z,17.75
2019-01-23T03:52:23.235Z,18.05
2019-01-23T03:57:25.344Z,15.95
2019-01-23T04:02:27.400Z,18.80
2019-01-23T04:07:29.375Z,16.48
2019-01-23T04:12:31.678Z,16.32
2019-01-23T04:17:33.779Z,16.85
2019-01-23T04:22:35.846Z,17.17
2019-01-23T04:27:37.907Z,16.70
2019-01-23T04:32:39.927Z,15.40
2019-01-23T04:37:42.853Z,16.17
2019-01-23T04:42:46.315Z,17.35
2019-01-23T04:47:48.662Z,17.95
2019-01-23T04:53:10.359Z,19.57
2019-01-23T04:58:12.876Z,17.00
2019-01-23T05:03:14.895Z,16.52
2019-01-23T05:08:16.957Z,19.25
2019-01-23T05:13:19.053Z,16.95
2019-01-23T05:18:21.086Z,19.30
2019-01-23T05:23:23.318Z,18.00
2019-01-23T05:28:25.401Z,19.35
2019-01-23T05:33:27.434Z,19.92
2019-01-23T05:38:29.459Z,19.92
2019-01-23T05:43:31.434Z,21.45
2019-01-23T05:48:33.936Z,20.75
2019-01-23T05:53:35.926Z,21.87
2019-01-23T05:58:37.977Z,20.10
2019-01-23T06:03:41.574Z,20.08
2019-01-23T06:08:43.567Z,19.20
2019-01-23T06:13:45.582Z,19.62
2019-01-23T06:18:47.745Z,18.65
2019-01-23T06:23:50.218Z,19.12
2019-01-23T06:28:52.228Z,20.23
2019-01-23T06:33:54.575Z,21.95
2019-01-23T06:38:58.658Z,20.43
2019-01-23T06:44:00.694Z,20.55
2019-01-23T06:49:02.745Z,19.50
2019-01-23T06:54:04.776Z,19.77
2019-01-23T06:59:06.809Z,18.95
2019-01-23T07:04:08.776Z,19.00
2019-01-23T07:09:10.814Z,21.30
2019-01-23T07:14:13.078Z,19.15
2019-01-23T07:19:15.124Z,18.92
2019-01-23T07:24:17.119Z,20.30
2019-01-23T07:29:19.136Z,19.62
2019-01-23T07:34:21.206Z,18.20
2019-01-23T07:39:23.267Z,18.73
2019-01-23T07:44:25.315Z,18.90
2019-01-23T07:49:27.379Z,17.57
2019-01-23T07:54:29.455Z,17.75
2019-01-23T07:59:31.448Z,21.60
2019-01-23T08:04:33.436Z,20.43
2019-01-23T08:09:35.513Z,19.10
2019-01-23T08:14:37.875Z,18.27
2019-01-23T08:19:39.933Z,19.02
2019-01-23T08:24:41.937Z,20.08
2019-01-23T08:29:44.081Z,20.50
2019-01-23T08:34:46.070Z,19.20
2019-01-23T08:40:07.679Z,19.48
2019-01-23T08:45:10.571Z,22.37
2019-01-23T08:50:24.746Z,19.73
2019-01-23T08:55:26.795Z,21.97
2019-01-23T09:00:29.179Z,18.45
2019-01-23T09:05:31.438Z,19.80
2019-01-23T09:10:33.543Z,20.57
2019-01-23T09:15:35.535Z,19.90
2019-01-23T09:20:37.660Z,20.45
2019-01-23T09:25:39.718Z,18.12
2019-01-23T09:31:20.630Z,18.05
2019-01-23T09:36:57.002Z,20.00
2019-01-23T09:42:37.949Z,19.40
2019-01-23T09:47:45.981Z,17.75
2019-01-23T09:53:26.884Z,20.15
2019-01-23T09:58:28.877Z,17.73
2019-01-23T10:03:50.325Z,17.73
2019-01-23T10:08:52.664Z,18.85
2019-01-23T10:13:54.746Z,19.32
2019-01-23T10:18:56.831Z,19.95
2019-01-23T10:23:58.918Z,19.62
2019-01-23T10:29:00.957Z,16.75
2019-01-23T10:34:24.328Z,18.25
2019-01-23T10:39:26.320Z,15.95
2019-01-23T10:44:28.366Z,18.92
2019-01-23T10:49:30.401Z,18.75
2019-01-23T10:54:32.745Z,18.40
2019-01-23T10:59:34.774Z,20.48
2019-01-23T11:04:36.825Z,19.17
2019-01-23T11:09:38.893Z,18.35
2019-01-23T11:14:43.218Z,19.32
2019-01-23T11:19:45.253Z,19.92
2019-01-23T11:24:47.327Z,21.10
2019-01-23T11:29:49.370Z,19.20
2019-01-23T11:34:51.362Z,19.02
2019-01-23T11:39:53.379Z,18.27
2019-01-23T11:44:55.377Z,19.92
2019-01-23T11:49:57.368Z,19.12
2019-01-23T11:54:59.625Z,18.48
2019-01-23T12:00:02.112Z,19.75
2019-01-23T12:05:05.425Z,17.65
2019-01-23T12:10:10.535Z,20.68
2019-01-23T12:15:14.504Z,19.62
2019-01-23T12:20:17.058Z,18.40
2019-01-23T12:25:19.111Z,19.65
2019-01-23T12:30:24.009Z,20.15
2019-01-23T12:35:26.013Z,18.87
2019-01-23T12:40:28.044Z,19.32
2019-01-23T12:45:30.272Z,17.98
2019-01-23T12:50:32.322Z,19.37
2019-01-23T12:55:34.366Z,18.77
2019-01-23T13:00:36.648Z,18.42
2019-01-23T13:05:38.990Z,17.73
2019-01-23T13:10:41.062Z,17.35
2019-01-23T13:15:43.126Z,18.23
2019-01-23T13:20:45.176Z,16.87
2019-01-23T13:25:47.275Z,19.20
2019-01-23T13:30:49.371Z,16.17
2019-01-23T13:35:51.403Z,18.73
2019-01-23T13:40:53.447Z,17.85
2019-01-23T13:45:55.452Z,17.52
2019-01-23T13:50:57.511Z,17.77
2019-01-23T13:55:59.530Z,17.60
2019-01-23T14:01:01.581Z,19.40
2019-01-23T14:06:03.706Z,19.30
2019-01-23T14:11:05.757Z,17.73
2019-01-23T14:16:07.858Z,17.10
2019-01-23T14:21:09.943Z,17.98
2019-01-23T14:26:12.014Z,16.65
2019-01-23T14:31:14.085Z,16.20
2019-01-23T14:36:16.137Z,19.82
2019-01-23T14:41:18.282Z,16.05
2019-01-23T14:46:20.286Z,17.48
2019-01-23T14:51:29.721Z,17.37
2019-01-23T14:56:31.710Z,17.37
2019-01-23T15:01:33.720Z,17.07
2019-01-23T15:06:35.713Z,18.60
2019-01-23T15:11:37.690Z,19.27
2019-01-23T15:16:39.698Z,17.05
2019-01-23T15:21:41.709Z,19.67
2019-01-23T15:26:43.813Z,17.95
2019-01-23T15:31:45.838Z,16.73
2019-01-23T15:36:47.873Z,18.95
2019-01-23T15:41:49.927Z,19.17
2019-01-23T15:46:51.965Z,18.80
2019-01-23T15:51:53.978Z,19.07
2019-01-23T15:56:56.046Z,19.17
2019-01-23T16:02:24.123Z,18.32
2019-01-23T16:07:21.419Z,18.48
2019-01-23T16:12:23.432Z,19.57
2019-01-23T16:17:25.442Z,18.42
2019-01-23T16:27:37.869Z,17.87
2019-01-23T16:32:39.916Z,17.80
2019-01-23T16:38:03.839Z,17.45
2019-01-23T16:43:05.867Z,17.92
2019-01-23T16:48:07.908Z,17.40
2019-01-23T16:53:09.958Z,16.70
2019-01-23T16:58:12.122Z,16.48
2019-01-23T17:03:14.202Z,13.38
2019-01-23T17:08:16.251Z,16.65
2019-01-23T17:13:18.263Z,17.12
2019-01-23T17:18:20.412Z,17.45
2019-01-23T17:23:22.486Z,19.17
2019-01-23T17:28:24.590Z,18.05
2019-01-23T17:33:27.005Z,16.67
2019-01-23T17:38:29.061Z,16.52
2019-01-23T17:48:45.662Z,16.17
2019-01-23T17:53:47.698Z,17.70
2019-01-23T17:58:49.694Z,19.00
2019-01-23T18:03:51.928Z,16.73
2019-01-23T18:08:53.958Z,19.75
2019-01-23T18:13:55.986Z,17.80
2019-01-23T18:18:57.992Z,16.90
2019-01-23T18:24:00.072Z,18.70
2019-01-23T18:29:02.124Z,18.55
2019-01-23T18:34:28.292Z,19.10
2019-01-23T18:40:00.810Z,18.87
2019-01-23T18:45:25.057Z,18.48
2019-01-23T18:51:06.016Z,20.05
2019-01-23T18:56:08.072Z,18.85
2019-01-23T19:01:10.117Z,19.37
2019-01-23T19:06:12.372Z,18.82
2019-01-23T19:11:14.421Z,19.45
2019-01-23T19:16:16.554Z,19.65
2019-01-23T19:21:18.617Z,17.87
2019-01-23T19:26:20.976Z,21.65
2019-01-23T19:31:23.059Z,19.55
2019-01-23T19:36:25.168Z,18.55
2019-01-23T19:41:27.331Z,20.40
2019-01-23T19:46:29.349Z,19.07
2019-01-23T19:51:31.574Z,20.48
2019-01-23T19:56:33.674Z,19.55
2019-01-23T20:01:35.692Z,20.65
2019-01-23T20:06:37.715Z,19.10
2019-01-23T20:11:39.823Z,20.00
2019-01-23T20:16:41.833Z,20.00
2019-01-23T20:21:43.862Z,19.95
2019-01-23T20:26:45.909Z,20.08
2019-01-23T20:31:47.969Z,20.05
2019-01-23T20:36:49.970Z,18.32
2019-01-23T20:41:52.031Z,20.80
2019-01-23T20:46:54.066Z,21.80
2019-01-23T20:51:56.402Z,19.57
2019-01-23T20:56:58.445Z,20.95
2019-01-23T21:02:00.468Z,22.22
2019-01-23T21:07:02.667Z,21.65
2019-01-23T21:12:08.720Z,18.73
2019-01-23T21:17:10.758Z,19.55
2019-01-23T21:22:12.805Z,19.87
2019-01-23T21:27:14.865Z,23.20
2019-01-23T21:32:16.888Z,20.85
2019-01-23T21:42:27.152Z,20.32
2019-01-23T21:47:29.201Z,21.20
2019-01-23T21:52:31.304Z,18.82
2019-01-23T21:57:33.308Z,35.33
2019-01-23T22:02:35.368Z,21.77
2019-01-23T22:07:37.425Z,21.77
2019-01-23T22:12:39.498Z,20.80
2019-01-23T22:17:41.563Z,21.68
2019-01-23T22:22:44.021Z,19.80
2019-01-23T22:27:46.025Z,22.62
2019-01-23T22:32:48.099Z,19.35
2019-01-23T22:37:50.098Z,20.70
2019-01-23T22:42:52.082Z,20.75
2019-01-23T22:47:54.090Z,22.10
2019-01-23T22:52:56.068Z,20.10
2019-01-23T22:57:58.119Z,21.45
2019-01-23T23:03:00.304Z,21.52
2019-01-23T23:08:02.334Z,22.48
2019-01-23T23:13:04.624Z,21.82
2019-01-23T23:18:06.726Z,20.90
2019-01-23T23:23:08.747Z,22.22
2019-01-23T23:28:10.739Z,23.77
2019-01-23T23:33:12.990Z,23.12
2019-01-23T23:38:15.002Z,25.45
2019-01-23T23:43:17.095Z,26.50
2019-01-23T23:48:19.134Z,25.40
2019-01-23T23:53:21.288Z,28.23
2019-01-23T23:58:23.374Z,31.17
